Time;durP1;ratioP1;P1;durP2;ratioP2;P2;SDS_P1;SDS_P2;PMS_P1;PMS_P2;Temp;Humidity;BMP_temperature;BMP_pressure;BME280_temperature;BME280_humidity;BME280_pressure;Samples;Min_cycle;Max_cycle;Signal;HPM_P1;HPM_P2
2022/06/12 00:02:13;;;;;;;12.18;2.55;;;;;;;17.93;52.49;101879.38;5068113;28;20048;-64
2022/06/12 00:04:41;;;;;;;9.80;2.22;;;;;;;17.59;53.50;101885.06;5057545;28;20062;-71
2022/06/12 00:07:09;;;;;;;10.40;2.15;;;;;;;17.82;52.91;101882.84;5067016;28;20052;-65
2022/06/12 00:09:36;;;;;;;13.50;2.28;;;;;;;17.65;53.65;101886.53;5057390;28;20052;-65
2022/06/12 00:12:04;;;;;;;10.68;2.20;;;;;;;17.60;53.94;101875.56;5072899;28;20075;-65
2022/06/12 00:14:32;;;;;;;9.32;2.10;;;;;;;17.68;53.96;101871.94;5073185;28;20060;-64
2022/06/12 00:16:59;;;;;;;11.95;2.28;;;;;;;17.65;53.88;101878.19;5059411;28;20041;-70
2022/06/12 00:19:28;;;;;;;10.07;2.42;;;;;;;17.82;53.66;101880.06;5083970;28;20052;-70
2022/06/12 00:21:57;;;;;;;10.30;1.85;;;;;;;18.11;52.81;101877.34;5074523;28;20055;-66
2022/06/12 00:24:25;;;;;;;9.23;2.10;;;;;;;18.04;52.89;101871.47;5061193;28;20052;-65
2022/06/12 00:26:54;;;;;;;10.75;2.20;;;;;;;17.80;53.58;101874.84;5054533;28;20069;-65
2022/06/12 00:29:24;;;;;;;9.85;2.08;;;;;;;18.11;53.03;101870.94;5072720;28;20055;-65
2022/06/12 00:31:58;;;;;;;11.40;1.98;;;;;;;18.04;53.09;101877.03;5073004;28;20079;-65
2022/06/12 00:34:30;;;;;;;12.27;2.78;;;;;;;17.82;53.61;101874.50;5056807;28;20554;-71
2022/06/12 00:36:58;;;;;;;13.95;2.40;;;;;;;17.56;54.65;101877.38;5077530;28;20081;-70
2022/06/12 00:39:27;;;;;;;11.70;2.30;;;;;;;17.25;56.04;101876.78;5067451;28;20072;-69
2022/06/12 00:41:56;;;;;;;12.25;1.90;;;;;;;17.31;56.17;101889.34;5088032;28;20052;-70
2022/06/12 00:44:30;;;;;;;11.98;2.45;;;;;;;17.39;56.10;101894.09;5023007;28;20044;-70
2022/06/12 00:47:06;;;;;;;13.68;2.38;;;;;;;17.21;56.89;101889.69;5073615;28;20045;-70
2022/06/12 00:49:42;;;;;;;11.70;2.30;;;;;;;17.29;56.59;101888.91;5068117;28;20052;-70
2022/06/12 00:52:39;;;;;;;14.00;2.33;;;;;;;17.41;56.16;101879.84;5060672;28;20045;-70
2022/06/12 00:55:31;;;;;;;15.45;2.47;;;;;;;17.44;56.41;101882.78;5090088;28;20531;-70
2022/06/12 00:58:06;;;;;;;13.70;2.38;;;;;;;17.29;56.98;101876.94;5045942;28;20060;-65
2022/06/12 01:00:35;;;;;;;13.63;2.60;;;;;;;17.62;56.10;101881.63;5084471;28;20055;-65
2022/06/12 01:03:03;;;;;;;13.68;2.83;;;;;;;17.36;56.81;101877.25;5080412;28;20056;-65
2022/06/12 01:08:17;;;;;;;10.55;2.20;;;;;;;17.28;57.18;101873.31;5078653;28;20055;-70
2022/06/12 01:10:49;;;;;;;9.77;2.00;;;;;;;17.42;56.77;101871.16;5056588;28;20064;-64
2022/06/12 01:13:23;;;;;;;13.43;2.60;;;;;;;17.23;57.34;101881.00;5087841;28;20056;-65
2022/06/12 01:15:54;;;;;;;11.48;2.25;;;;;;;17.28;57.36;101878.06;5076632;28;20052;-71
2022/06/12 01:18:24;;;;;;;11.30;2.00;;;;;;;17.20;57.57;101879.72;5062310;28;20052;-65
2022/06/12 01:21:11;;;;;;;11.70;2.10;;;;;;;17.27;57.48;101884.78;5058212;28;20043;-65
2022/06/12 01:24:16;;;;;;;13.43;2.55;;;;;;;17.24;57.76;101879.88;5063133;28;20057;-70
2022/06/12 01:26:58;;;;;;;11.75;2.70;;;;;;;17.48;57.27;101883.81;5010421;28;20061;-71
2022/06/12 01:29:29;;;;;;;12.23;2.58;;;;;;;17.29;57.89;101888.91;5075177;28;20052;-71
2022/06/12 01:32:03;;;;;;;17.80;2.90;;;;;;;17.15;58.25;101890.22;5081748;28;20510;-70
2022/06/12 01:34:46;;;;;;;10.65;2.50;;;;;;;17.31;57.86;101878.22;5080637;28;20072;-71
2022/06/12 01:37:19;;;;;;;15.43;2.80;;;;;;;17.29;57.99;101882.50;5072909;28;20051;-70
2022/06/12 01:39:50;;;;;;;15.25;3.15;;;;;;;17.52;57.41;101879.19;5081777;28;20056;-66
2022/06/12 01:42:23;;;;;;;;;;;;;;;17.28;57.90;101883.63;5070946;28;20074;-70
2022/06/12 01:44:53;;;;;;;12.45;2.88;;;;;;;17.44;57.89;101882.78;5088165;28;19927;-65
2022/06/12 01:47:36;;;;;;;12.35;2.50;;;;;;;17.32;58.39;101885.44;5085334;28;20048;-65
2022/06/12 01:50:09;;;;;;;15.73;3.42;;;;;;;16.91;59.39;101885.16;5063111;28;20068;-65
2022/06/12 01:52:43;;;;;;;15.15;3.85;;;;;;;16.75;59.77;101876.44;5064318;28;20060;-70
2022/06/12 01:55:35;;;;;;;17.80;2.88;;;;;;;17.00;59.20;101876.81;5070920;28;20048;-71
2022/06/12 01:58:11;;;;;;;14.50;2.95;;;;;;;17.07;58.96;101885.47;5068997;28;20048;-66
2022/06/12 02:00:44;;;;;;;12.35;2.70;;;;;;;17.00;59.44;101890.72;5070969;28;20048;-66
2022/06/12 02:03:59;;;;;;;15.85;2.67;;;;;;;17.04;59.06;101894.47;5059385;28;20053;-64
2022/06/12 02:06:33;;;;;;;15.48;2.65;;;;;;;17.07;59.05;101888.25;5065088;28;20064;-65
2022/06/12 02:09:44;;;;;;;13.90;2.80;;;;;;;17.24;58.21;101886.28;5075386;28;20416;-72
2022/06/12 02:15:09;;;;;;;14.23;2.70;;;;;;;17.08;58.42;101889.88;5068164;28;20060;-65
2022/06/12 02:18:10;;;;;;;10.30;2.30;;;;;;;16.46;59.53;101900.44;5049735;28;20059;-70
2022/06/12 02:20:42;;;;;;;12.15;2.70;;;;;;;16.27;60.15;101897.13;5058398;28;20055;-70
2022/06/12 02:23:18;;;;;;;9.88;2.63;;;;;;;16.49;59.80;101891.50;5045738;28;20056;-65
2022/06/12 02:25:47;;;;;;;10.32;2.55;;;;;;;16.48;59.66;101901.78;5085817;28;20053;-65
2022/06/12 02:28:20;;;;;;;14.23;2.75;;;;;;;16.34;59.71;101906.63;5072882;28;20384;-65
2022/06/12 02:30:54;;;;;;;13.00;2.60;;;;;;;16.39;59.50;101902.88;5083770;28;20048;-65
2022/06/12 02:33:25;;;;;;;12.50;2.55;;;;;;;16.45;59.38;101894.09;5070489;28;20407;-64
2022/06/12 02:36:04;;;;;;;11.85;2.60;;;;;;;16.55;59.19;101902.13;5061379;28;20053;-72
2022/06/12 02:38:38;;;;;;;14.60;2.78;;;;;;;16.68;59.63;101905.94;5079500;28;20044;-65
2022/06/12 02:41:37;;;;;;;11.90;3.25;;;;;;;16.42;60.77;101902.25;5057248;28;20064;-65
2022/06/12 02:44:11;;;;;;;16.65;2.45;;;;;;;16.57;60.57;101899.03;5080620;28;20056;-65
2022/06/12 02:46:48;;;;;;;12.48;2.78;;;;;;;16.56;60.11;101900.19;5049058;28;20072;-69
2022/06/12 02:49:15;;;;;;;14.98;2.85;;;;;;;16.72;59.06;101899.38;5092440;28;20052;-70
2022/06/12 02:52:01;;;;;;;16.92;2.88;;;;;;;16.82;58.62;101895.47;5089032;28;20062;-71
2022/06/12 02:54:33;;;;;;;15.73;3.45;;;;;;;16.80;59.43;101900.53;5062627;28;20128;-70
2022/06/12 02:57:26;;;;;;;12.38;3.17;;;;;;;16.67;60.11;101905.09;5046015;28;20852;-71
2022/06/12 03:00:06;;;;;;;11.02;2.10;;;;;;;16.60;60.71;101907.53;5068481;28;20055;-65
2022/06/12 03:02:46;;;;;;;12.98;2.80;;;;;;;16.35;62.00;101896.34;5067455;28;20052;-70
2022/06/12 03:05:21;;;;;;;18.48;3.10;;;;;;;16.37;61.42;101894.88;5081887;28;20064;-70
2022/06/12 03:08:00;;;;;;;15.25;2.95;;;;;;;16.33;60.96;101893.88;5073533;28;20048;-64
2022/06/12 03:10:35;;;;;;;15.80;2.93;;;;;;;16.02;61.83;101904.25;5074276;28;20049;-65
2022/06/12 03:13:04;;;;;;;14.85;2.75;;;;;;;15.98;61.67;101906.03;5040629;28;20064;-71
2022/06/12 03:15:34;;;;;;;12.18;2.80;;;;;;;15.90;61.82;101912.34;5076494;28;20048;-71
2022/06/12 03:18:03;;;;;;;13.45;2.85;;;;;;;15.82;61.36;101904.81;5046036;28;20044;-70
2022/06/12 03:20:55;;;;;;;11.07;2.30;;;;;;;15.78;61.53;101901.84;5061787;28;20411;-71
2022/06/12 03:23:43;;;;;;;14.02;2.97;;;;;;;15.71;61.35;101897.88;5049717;28;20496;-71
2022/06/12 03:26:15;;;;;;;14.32;3.10;;;;;;;15.99;61.25;101906.88;5084296;28;20052;-71
2022/06/12 03:28:57;;;;;;;14.13;3.25;;;;;;;16.32;60.00;101905.34;5073620;28;20037;-71
2022/06/12 03:31:35;;;;;;;13.90;2.95;;;;;;;16.33;60.21;101899.47;5043061;28;20420;-64
2022/06/12 03:34:15;;;;;;;17.45;3.42;;;;;;;16.27;60.44;101902.69;5032052;28;20056;-65
2022/06/12 03:36:45;;;;;;;;;;;;;;;16.05;61.39;101909.16;5036512;28;20052;-64
2022/06/12 03:39:19;;;;;;;14.52;2.75;;;;;;;15.62;62.98;101900.63;5041567;28;19924;-65
2022/06/12 03:41:54;;;;;;;15.55;2.80;;;;;;;15.69;62.76;101898.22;5058735;28;20048;-64
2022/06/12 03:44:26;;;;;;;15.25;3.28;;;;;;;15.63;63.59;101902.28;5041737;28;20581;-70
2022/06/12 03:47:15;;;;;;;14.48;2.63;;;;;;;15.83;63.01;101906.44;5087871;28;20503;-65
2022/06/12 03:49:59;;;;;;;12.23;2.40;;;;;;;15.91;61.97;101902.91;5075243;28;20049;-71
2022/06/12 03:52:31;;;;;;;12.95;2.95;;;;;;;16.11;61.16;101907.06;5049954;28;20063;-65
2022/06/12 03:55:19;;;;;;;13.75;2.75;;;;;;;16.00;61.80;101900.97;5062592;28;20098;-64
2022/06/12 03:57:53;;;;;;;14.50;2.78;;;;;;;15.77;62.56;101902.19;5086690;28;20067;-70
2022/06/12 04:00:38;;;;;;;14.20;2.60;;;;;;;15.45;63.39;101906.06;5060919;28;20132;-70
2022/06/12 04:03:13;;;;;;;16.02;2.90;;;;;;;15.59;63.50;101904.03;5060470;28;20063;-70
2022/06/12 04:05:45;;;;;;;11.00;2.72;;;;;;;15.70;63.33;101885.97;5037598;28;20057;-70
2022/06/12 04:08:19;;;;;;;16.30;3.45;;;;;;;15.32;64.46;101898.63;5057566;28;20052;-71
2022/06/12 04:10:47;;;;;;;13.02;2.60;;;;;;;15.14;65.53;101894.09;5089379;28;20052;-70
2022/06/12 04:13:16;;;;;;;14.10;2.72;;;;;;;15.20;65.20;101898.34;5076258;28;20052;-70
2022/06/12 04:15:50;;;;;;;17.65;3.65;;;;;;;15.35;65.22;101900.75;5059934;28;20149;-71
2022/06/12 04:18:18;;;;;;;16.10;3.78;;;;;;;15.72;64.49;101889.25;5050663;28;20178;-70
2022/06/12 04:20:54;;;;;;;14.65;3.13;;;;;;;15.60;64.60;101891.78;5070699;28;20058;-70
2022/06/12 04:23:50;;;;;;;15.32;3.72;;;;;;;15.41;65.35;101902.28;5091398;28;20542;-70
2022/06/12 04:26:33;;;;;;;16.88;3.65;;;;;;;15.67;64.60;101892.16;5042695;28;20056;-71
2022/06/12 04:29:22;;;;;;;15.18;3.13;;;;;;;15.62;64.81;101899.81;5057844;28;20060;-65
2022/06/12 04:31:53;;;;;;;16.80;3.78;;;;;;;15.44;65.62;101900.84;5059862;28;20052;-71
2022/06/12 04:34:32;;;;;;;20.83;3.00;;;;;;;15.67;64.90;101905.25;5075533;28;20404;-70
2022/06/12 04:37:03;;;;;;;18.27;3.42;;;;;;;15.47;65.76;101905.75;5044191;28;20061;-70
2022/06/12 04:39:32;;;;;;;14.40;3.40;;;;;;;15.67;65.44;101908.00;5087989;28;20048;-71
2022/06/12 04:42:03;;;;;;;15.98;3.47;;;;;;;15.72;65.17;101910.66;5061496;28;20051;-71
2022/06/12 04:44:30;;;;;;;14.85;3.45;;;;;;;15.77;65.15;101902.19;5066125;28;20365;-71
2022/06/12 04:46:59;;;;;;;15.30;2.92;;;;;;;15.59;65.06;101906.00;5085782;28;20091;-71
2022/06/12 04:49:30;;;;;;;14.05;3.33;;;;;;;15.49;65.66;101897.94;5088709;28;20051;-70
2022/06/12 04:51:59;;;;;;;20.67;3.42;;;;;;;15.65;64.89;101897.22;5088810;28;20051;-70
2022/06/12 04:54:28;;;;;;;16.85;3.53;;;;;;;15.83;64.84;101897.31;5074441;28;20049;-71
2022/06/12 04:56:56;;;;;;;17.38;2.78;;;;;;;15.76;64.67;101897.75;5065732;28;20064;-72
2022/06/12 04:59:24;;;;;;;18.17;3.50;;;;;;;15.30;66.17;101902.84;5073651;28;20055;-70
2022/06/12 05:01:52;;;;;;;14.93;3.05;;;;;;;15.14;66.69;101899.63;5082938;28;20504;-71
2022/06/12 05:04:21;;;;;;;15.13;4.22;;;;;;;15.19;66.92;101899.50;5063369;28;20048;-71
2022/06/12 05:06:49;;;;;;;22.08;2.92;;;;;;;15.68;66.28;101895.75;5077358;28;20107;-71
2022/06/12 05:09:18;;;;;;;18.08;3.22;;;;;;;15.37;66.29;101894.88;5063576;28;20052;-71
2022/06/12 05:11:46;;;;;;;19.67;3.67;;;;;;;15.31;66.50;101896.13;5074657;28;20059;-70
2022/06/12 05:14:13;;;;;;;15.07;3.33;;;;;;;15.46;66.04;101896.59;5073161;28;20071;-70
2022/06/12 05:16:48;;;;;;;14.30;3.45;;;;;;;15.62;65.60;101894.25;5067518;28;20502;-71
2022/06/12 05:19:21;;;;;;;10.02;2.58;;;;;;;15.41;64.39;101890.38;5074634;28;20068;-71
2022/06/12 05:21:48;;;;;;;15.80;3.05;;;;;;;15.58;64.32;101898.81;5075080;28;20056;-71
2022/06/12 05:24:16;;;;;;;19.27;2.85;;;;;;;15.55;64.89;101888.34;5075102;28;20082;-71
2022/06/12 05:26:45;;;;;;;17.92;2.92;;;;;;;15.46;65.25;101888.28;5087095;28;20048;-71
2022/06/12 05:29:21;;;;;;;15.23;3.13;;;;;;;15.38;65.72;101891.78;5083448;28;20056;-71
2022/06/12 05:31:48;;;;;;;14.40;2.97;;;;;;;15.49;64.82;101884.06;5083146;28;20538;-71
2022/06/12 05:34:16;;;;;;;15.05;3.13;;;;;;;15.60;64.43;101891.78;5074336;28;20650;-72
2022/06/12 05:36:45;;;;;;;12.85;3.10;;;;;;;15.58;64.46;101894.09;5075654;28;20064;-70
2022/06/12 05:39:13;;;;;;;13.50;3.25;;;;;;;15.98;62.82;101899.66;5043134;28;20407;-71
2022/06/12 05:41:40;;;;;;;16.73;2.65;;;;;;;16.12;62.22;101905.91;5071585;28;20052;-71
2022/06/12 05:44:08;;;;;;;12.95;3.03;;;;;;;15.93;61.25;101899.78;5063566;28;20052;-70
2022/06/12 05:46:36;;;;;;;18.38;2.95;;;;;;;15.90;61.66;101901.25;5073126;28;20059;-71
2022/06/12 05:49:03;;;;;;;13.77;3.58;;;;;;;15.79;62.25;101900.69;5049568;28;20057;-70
2022/06/12 05:51:30;;;;;;;12.63;2.72;;;;;;;15.81;62.32;101897.63;5072465;28;20063;-71
2022/06/12 05:53:58;;;;;;;16.92;3.17;;;;;;;15.85;61.58;101900.59;5081460;28;20075;-71
2022/06/12 05:56:27;;;;;;;10.80;2.70;;;;;;;15.89;61.89;101898.78;5080396;28;20049;-71
2022/06/12 05:58:56;;;;;;;14.10;3.00;;;;;;;15.77;61.88;101902.19;5067124;28;20063;-71
2022/06/12 06:01:23;;;;;;;18.17;3.33;;;;;;;15.93;61.72;101911.75;5071918;28;20053;-70
2022/06/12 06:03:54;;;;;;;13.30;3.10;;;;;;;15.99;59.88;101917.97;5042634;28;20053;-71
2022/06/12 06:06:29;;;;;;;14.52;2.22;;;;;;;16.33;59.80;101916.13;5064738;28;20048;-71
2022/06/12 06:09:08;;;;;;;13.60;2.50;;;;;;;16.71;58.75;101908.06;5062285;28;20051;-71
2022/06/12 06:11:54;;;;;;;16.63;2.88;;;;;;;16.32;58.66;101916.47;5071209;28;20040;-73
2022/06/12 06:14:36;;;;;;;;;;;;;;;15.90;59.77;101917.13;5042753;28;20052;-71
2022/06/12 06:17:08;;;;;;;10.20;2.50;;;;;;;15.87;60.19;101923.28;5060954;28;19920;-71
2022/06/12 06:19:46;;;;;;;10.75;2.40;;;;;;;15.72;60.36;101919.81;5060478;28;20047;-71
2022/06/12 06:22:20;;;;;;;12.02;2.60;;;;;;;16.18;59.33;101922.13;5055376;28;20063;-72
2022/06/12 06:24:48;;;;;;;12.38;2.97;;;;;;;16.46;58.57;101925.47;5076885;28;20546;-72
2022/06/12 06:27:18;;;;;;;15.02;3.30;;;;;;;16.21;58.89;101929.00;5030097;28;20051;-71
2022/06/12 06:29:49;;;;;;;12.93;2.60;;;;;;;16.13;58.74;101919.50;5022762;28;20041;-72
2022/06/12 06:32:24;;;;;;;14.48;3.25;;;;;;;16.23;58.85;101926.72;5060082;28;20048;-71
2022/06/12 06:34:51;;;;;;;12.52;2.63;;;;;;;16.08;59.16;101918.81;5069284;28;20048;-71
2022/06/12 06:37:18;;;;;;;16.20;3.03;;;;;;;16.44;57.89;101936.13;5082866;28;20122;-71
2022/06/12 06:39:46;;;;;;;14.27;2.50;;;;;;;16.22;58.43;101931.47;5077091;28;20043;-71
2022/06/12 06:42:13;;;;;;;12.52;2.53;;;;;;;16.21;58.16;101935.41;5076008;28;20063;-72
2022/06/12 06:47:31;;;;;;;13.00;2.30;;;;;;;16.23;58.13;101927.53;5077497;28;20049;-72
2022/06/12 06:49:58;;;;;;;14.02;2.80;;;;;;;16.51;57.21;101933.72;5078361;28;20053;-71
2022/06/12 06:52:25;;;;;;;10.73;2.17;;;;;;;16.64;56.46;101928.00;5057866;28;20075;-72
2022/06/12 06:54:53;;;;;;;17.08;3.28;;;;;;;16.45;57.18;101927.44;5084789;28;20044;-71
2022/06/12 06:57:21;;;;;;;11.32;2.40;;;;;;;16.23;57.79;101926.72;5091466;28;20049;-73
2022/06/12 06:59:48;;;;;;;16.65;3.15;;;;;;;16.34;57.55;101937.22;5076153;28;20087;-71
2022/06/12 07:02:16;;;;;;;13.38;2.65;;;;;;;16.18;58.26;101938.00;5088587;28;20045;-71
2022/06/12 07:04:43;;;;;;;18.17;3.40;;;;;;;16.26;57.67;101928.84;5064208;28;20049;-71
2022/06/12 07:07:12;;;;;;;10.27;2.55;;;;;;;16.42;57.54;101932.84;5089440;28;20056;-71
2022/06/12 07:09:40;;;;;;;8.90;2.17;;;;;;;16.58;57.46;101939.63;5041088;28;20048;-72
2022/06/12 07:12:12;;;;;;;10.73;2.92;;;;;;;16.75;56.70;101936.88;5087664;28;20411;-72
2022/06/12 07:14:40;;;;;;;15.23;3.03;;;;;;;16.96;56.31;101932.31;5043442;28;20048;-72
2022/06/12 07:17:07;;;;;;;13.15;3.10;;;;;;;16.71;56.50;101928.34;5063214;28;20056;-72
2022/06/12 07:19:38;;;;;;;12.63;2.55;;;;;;;16.76;56.75;101936.53;5075253;28;20085;-72
2022/06/12 07:22:06;;;;;;;17.17;3.78;;;;;;;16.81;56.83;101938.34;5069290;28;20111;-72
2022/06/12 07:24:33;;;;;;;11.93;2.55;;;;;;;16.88;56.55;101936.72;5044539;28;20053;-71
2022/06/12 07:27:01;;;;;;;13.80;2.83;;;;;;;17.18;55.79;101932.13;5058214;28;20734;-70
2022/06/12 07:29:40;;;;;;;18.23;2.63;;;;;;;17.36;55.48;101932.94;5060783;28;20065;-73
2022/06/12 07:32:29;;;;;;;11.30;2.92;;;;;;;17.95;54.25;101929.22;5045482;28;20048;-71
2022/06/12 07:35:03;;;;;;;13.98;3.13;;;;;;;17.71;54.07;101934.56;5069130;28;20430;-72
2022/06/12 07:37:31;;;;;;;9.90;2.53;;;;;;;17.76;53.54;101935.19;5078977;28;20057;-72
2022/06/12 07:40:00;;;;;;;13.85;2.83;;;;;;;17.79;53.20;101933.69;5053366;28;20141;-71
2022/06/12 07:42:30;;;;;;;15.20;3.15;;;;;;;17.96;53.27;101939.22;5072828;28;20044;-71
2022/06/12 07:44:57;;;;;;;16.70;4.00;;;;;;;18.28;52.12;101935.81;5072534;28;20066;-73
2022/06/12 07:47:24;;;;;;;12.85;2.75;;;;;;;17.92;53.61;101941.06;5043055;28;20057;-72
2022/06/12 07:49:52;;;;;;;10.98;2.63;;;;;;;18.45;52.33;101937.72;5074858;28;20041;-72
2022/06/12 07:52:21;;;;;;;12.95;3.30;;;;;;;19.28;50.23;101922.66;5060145;28;20804;-72
2022/06/12 07:54:50;;;;;;;13.18;3.28;;;;;;;19.74;49.04;101921.53;5057971;28;20119;-71
2022/06/12 07:57:17;;;;;;;12.18;2.58;;;;;;;20.32;47.53;101920.34;5055637;28;20052;-71
2022/06/12 07:59:45;;;;;;;10.00;2.80;;;;;;;20.26;46.28;101932.97;5055388;28;20045;-71
2022/06/12 08:02:12;;;;;;;10.07;2.72;;;;;;;20.44;45.40;101923.97;5076927;28;20059;-66
2022/06/12 08:04:40;;;;;;;11.93;3.17;;;;;;;20.79;44.30;101919.50;5078756;28;20063;-67
2022/06/12 08:07:08;;;;;;;11.57;3.10;;;;;;;20.21;46.72;101922.00;5059978;28;20049;-67
2022/06/12 08:09:35;;;;;;;10.60;2.78;;;;;;;20.35;45.80;101923.28;5070765;28;20487;-66
2022/06/12 08:12:03;;;;;;;11.70;2.63;;;;;;;20.62;45.25;101921.75;5062935;28;20044;-66
2022/06/12 08:14:30;;;;;;;15.35;2.88;;;;;;;20.58;44.60;101924.44;5076181;28;20052;-68
2022/06/12 08:16:58;;;;;;;14.93;3.25;;;;;;;20.63;45.00;101909.34;5052522;28;20047;-67
2022/06/12 08:22:11;;;;;;;14.63;3.35;;;;;;;20.07;46.99;101911.09;5072239;28;20052;-65
2022/06/12 08:24:39;;;;;;;18.05;3.45;;;;;;;20.36;46.49;101919.31;5089620;28;20063;-64
2022/06/12 08:27:06;;;;;;;14.02;2.72;;;;;;;20.17;46.41;101914.28;5077514;28;20052;-65
2022/06/12 08:29:34;;;;;;;12.73;2.72;;;;;;;20.25;46.77;101906.13;5057589;28;20057;-65
2022/06/12 08:32:06;;;;;;;9.77;2.80;;;;;;;20.21;46.24;101905.22;5089100;28;20055;-66
2022/06/12 08:34:41;;;;;;;14.82;2.58;;;;;;;19.51;47.95;101912.75;5078678;28;20059;-65
2022/06/12 08:37:13;;;;;;;13.80;3.00;;;;;;;19.86;47.48;101908.41;5072747;28;20515;-64
2022/06/12 08:39:41;;;;;;;13.15;3.28;;;;;;;19.63;48.00;101907.19;5058520;28;20053;-65
2022/06/12 08:42:18;;;;;;;12.52;2.35;;;;;;;19.20;49.66;101906.78;5043171;28;20048;-64
2022/06/12 08:45:00;;;;;;;10.13;2.05;;;;;;;18.89;50.74;101901.63;5073329;28;20055;-66
2022/06/12 08:47:38;;;;;;;15.20;2.97;;;;;;;19.16;50.28;101908.59;5087668;28;20045;-47
2022/06/12 08:50:14;;;;;;;12.63;2.92;;;;;;;19.64;48.27;101896.81;5057704;28;20060;-68
2022/06/12 08:52:46;;;;;;;11.32;2.95;;;;;;;20.29;46.66;101890.28;5065119;28;20048;-63
2022/06/12 08:55:22;;;;;;;9.77;2.95;;;;;;;20.34;47.90;101898.44;5058287;28;20053;-66
2022/06/12 08:57:53;;;;;;;10.23;2.55;;;;;;;20.24;47.34;101896.94;5087504;28;20127;-65
2022/06/12 09:00:25;;;;;;;11.60;2.63;;;;;;;19.63;48.92;101887.63;5083731;28;20045;-65
2022/06/12 09:02:52;;;;;;;11.05;2.55;;;;;;;19.62;48.01;101885.16;5077079;28;20511;-67
2022/06/12 09:05:26;;;;;;;11.25;2.58;;;;;;;19.82;47.97;101881.50;5075667;28;20384;-67
2022/06/12 09:08:18;;;;;;;10.75;2.38;;;;;;;19.38;45.94;101890.69;5059571;28;20052;-66
2022/06/12 09:10:51;;;;;;;15.70;2.63;;;;;;;19.59;45.44;101885.88;5076465;28;20506;-66
2022/06/12 09:13:28;;;;;;;9.38;1.85;;;;;;;19.36;45.18;101879.03;5059713;28;20056;-67
2022/06/12 09:16:10;;;;;;;11.23;2.97;;;;;;;19.83;46.41;101880.31;5076517;28;20048;-67
2022/06/12 09:19:11;;;;;;;12.18;2.35;;;;;;;19.89;46.14;101876.94;5050069;28;20057;-67
2022/06/12 09:21:49;;;;;;;10.63;2.30;;;;;;;20.17;46.05;101884.69;5078019;28;20052;-67
2022/06/12 09:24:27;;;;;;;9.18;2.10;;;;;;;20.10;45.95;101883.25;5079660;28;20402;-68
2022/06/12 09:27:02;;;;;;;8.30;2.20;;;;;;;19.83;44.41;101885.91;5047517;28;20503;-69
2022/06/12 09:29:47;;;;;;;7.68;1.90;;;;;;;19.63;44.16;101884.81;5048917;28;20056;-65
2022/06/12 09:32:17;;;;;;;9.13;2.08;;;;;;;19.94;44.20;101884.31;5075739;28;20045;-63
2022/06/12 09:34:54;;;;;;;11.10;1.98;;;;;;;19.95;42.96;101886.75;5073387;28;20067;-65
2022/06/12 09:40:37;;;;;;;10.60;2.38;;;;;;;20.92;44.83;101873.47;5079932;28;20048;-62
2022/06/12 09:43:43;;;;;;;8.80;2.20;;;;;;;20.06;44.84;101887.94;5075102;28;20059;-65
2022/06/12 09:46:48;;;;;;;10.82;2.58;;;;;;;21.04;44.09;101883.88;5036935;28;20526;-69
2022/06/12 09:49:41;;;;;;;10.52;2.30;;;;;;;20.97;43.49;101880.81;5071159;28;20061;-68
2022/06/12 09:52:15;;;;;;;8.23;2.42;;;;;;;20.70;44.44;101870.38;5074482;28;20058;-70
2022/06/12 09:54:55;;;;;;;9.70;2.17;;;;;;;20.61;43.70;101875.28;5071588;28;20059;-70
2022/06/12 09:57:23;;;;;;;13.48;2.80;;;;;;;20.10;44.35;101872.06;5075462;28;20057;-64
2022/06/12 09:59:57;;;;;;;11.02;2.95;;;;;;;20.00;45.46;101880.91;5074221;28;20041;-66
2022/06/12 10:02:55;;;;;;;8.38;2.13;;;;;;;20.31;45.56;101882.34;5075679;28;20067;-70
2022/06/12 10:05:31;;;;;;;11.30;2.72;;;;;;;20.58;44.85;101876.84;5059005;28;20055;-65
2022/06/12 10:08:17;;;;;;;12.45;2.35;;;;;;;20.41;45.09;101891.09;5066518;28;20044;-63
2022/06/12 10:11:21;;;;;;;16.25;2.90;;;;;;;20.17;46.32;101879.09;5066276;28;20048;-65
2022/06/12 10:13:57;;;;;;;10.55;2.53;;;;;;;20.10;46.05;101886.03;4962818;28;20777;-68
2022/06/12 10:16:30;;;;;;;11.50;2.47;;;;;;;20.45;45.94;101877.22;5068731;28;20059;-67
2022/06/12 10:19:24;;;;;;;9.98;2.25;;;;;;;20.67;46.09;101871.09;5041888;28;20059;-67
2022/06/12 10:21:54;;;;;;;11.93;3.05;;;;;;;20.95;46.09;101871.97;5057694;28;20051;-67
2022/06/12 10:24:22;;;;;;;8.70;2.75;;;;;;;20.93;45.81;101871.50;5092572;28;20045;-66
2022/06/12 10:27:07;;;;;;;8.90;2.83;;;;;;;21.44;44.98;101865.00;5043976;28;20063;-65
2022/06/12 10:29:44;;;;;;;9.90;2.90;;;;;;;21.30;46.67;101855.38;5080133;28;20055;-65
2022/06/12 10:32:15;;;;;;;13.23;3.35;;;;;;;21.36;46.69;101863.16;5081581;28;20044;-66
2022/06/12 10:34:42;;;;;;;9.57;2.63;;;;;;;21.11;46.56;101859.66;5039566;28;20053;-66
2022/06/12 10:37:16;;;;;;;11.15;2.90;;;;;;;20.62;47.17;101862.94;5045395;28;20060;-65
2022/06/12 10:39:44;;;;;;;8.43;2.60;;;;;;;20.45;47.69;101855.63;5074266;28;20558;-64
2022/06/12 10:42:34;;;;;;;8.63;2.35;;;;;;;20.55;46.35;101854.34;5085709;28;20048;-66
2022/06/12 10:45:02;;;;;;;;;;;;;;;20.66;46.16;101853.47;5037296;28;20068;-64
2022/06/12 10:47:33;;;;;;;8.32;2.55;;;;;;;20.64;46.09;101850.22;5076810;28;19943;-66
2022/06/12 10:50:06;;;;;;;8.63;2.60;;;;;;;20.61;47.08;101858.50;5038445;28;20476;-66
2022/06/12 10:52:34;;;;;;;8.73;2.50;;;;;;;20.59;46.70;101836.47;5073409;28;20420;-66
2022/06/12 10:55:01;;;;;;;9.63;2.67;;;;;;;20.44;46.73;101840.00;5079128;28;20071;-65
2022/06/12 10:57:45;;;;;;;9.18;2.35;;;;;;;20.57;46.47;101836.03;5081603;28;20427;-64
2022/06/12 11:00:19;;;;;;;9.80;2.38;;;;;;;20.57;45.71;101826.81;5061093;28;20059;-65
2022/06/12 11:03:13;;;;;;;8.00;2.60;;;;;;;20.81;45.53;101835.94;5054665;28;20052;-62
2022/06/12 11:05:58;;;;;;;11.35;2.40;;;;;;;21.02;44.88;101827.38;5082559;28;20063;-63
2022/06/12 11:08:26;;;;;;;10.75;2.22;;;;;;;21.05;42.76;101827.47;5070787;28;20044;-67
2022/06/12 11:11:10;;;;;;;8.65;2.35;;;;;;;20.79;40.34;101827.09;5078310;28;20641;-65
2022/06/12 11:13:55;;;;;;;9.13;2.47;;;;;;;21.14;40.47;101813.31;5054562;28;20049;-69
2022/06/12 11:16:44;;;;;;;6.88;1.83;;;;;;;21.69;41.13;101812.38;5070073;28;20419;-64
2022/06/12 11:19:33;;;;;;;13.45;2.30;;;;;;;21.57;40.56;101812.44;5070965;28;20811;-66
2022/06/12 11:22:04;;;;;;;9.90;2.35;;;;;;;21.30;40.52;101816.94;5084900;28;21252;-64
2022/06/12 11:24:37;;;;;;;6.70;2.35;;;;;;;21.53;39.75;101809.53;5072376;28;20055;-68
2022/06/12 11:27:20;;;;;;;9.20;2.05;;;;;;;21.79;40.43;101798.63;5074591;28;20052;-73
2022/06/12 11:30:10;;;;;;;10.77;2.55;;;;;;;22.31;39.32;101806.69;5084203;28;20047;-62
2022/06/12 11:32:43;;;;;;;;;;;;;;;21.49;39.70;101805.84;5077153;28;20395;-64
2022/06/12 11:35:38;;;;;;;10.10;2.00;;;;;;;21.62;39.27;101790.56;5074427;28;19932;-65
2022/06/12 11:38:34;;;;;;;8.10;2.10;;;;;;;21.63;39.60;101785.78;5084676;28;20048;-65
2022/06/12 11:41:25;;;;;;;9.23;1.80;;;;;;;21.49;40.58;101786.22;5057168;28;20044;-63
2022/06/12 11:44:18;;;;;;;7.88;2.50;;;;;;;21.08;38.54;101776.31;5068281;28;20059;-64
2022/06/12 11:47:13;;;;;;;8.15;1.98;;;;;;;21.14;39.61;101777.69;5079520;28;20040;-65
2022/06/12 11:49:51;;;;;;;4.95;2.03;;;;;;;21.48;39.23;101773.38;5067141;28;20071;-66
2022/06/12 11:52:27;;;;;;;15.55;2.55;;;;;;;21.62;38.96;101767.34;5045550;28;20543;-67
2022/06/12 11:55:17;;;;;;;7.10;1.77;;;;;;;21.42;38.24;101763.63;5064741;28;20057;-68
2022/06/12 11:58:15;;;;;;;7.80;2.28;;;;;;;21.52;39.09;101771.47;5060653;28;20053;-67
2022/06/12 12:01:07;;;;;;;7.78;2.30;;;;;;;21.42;39.64;101768.41;5059622;28;20048;-68
2022/06/12 12:03:47;;;;;;;5.45;1.90;;;;;;;21.93;39.26;101765.31;5083620;28;20057;-67
2022/06/12 12:06:16;;;;;;;8.10;2.03;;;;;;;22.32;36.86;101757.78;5044247;28;20067;-67
2022/06/12 12:09:02;;;;;;;6.78;2.35;;;;;;;21.98;35.39;101755.81;5084349;28;20238;-67
2022/06/12 12:11:37;;;;;;;5.55;1.90;;;;;;;21.99;37.18;101757.44;5057687;28;20064;-66